Latest Weather Observations for Davis*

IDT60801

Issued at 8:31 pm EST Sunday 19 April 2015 (issued every 30 minutes, with the page automatically refreshed every 10 minutes)

About weather observations | Map of weather stations | Latest weather observations for ANT | Other Formats
Station Details ID: 300000 Name: DAVIS Lat: -68.57 Lon: 77.97 Height: 18.0 m
Data from the previous 72 hours. | See also: Recent months at Davis*
Date/Time
EST
Temp
°C
App
Temp
°C
Dew
Point
Rel
Hum
%
Delta-T
°C
Wind Press
QNH
hPa
Press
MSL
hPa
Rain
since 9 am
mm
Dir
 
Spd
km/h
Gust
km/h
Spd
kts
Gust
kts
19/08:30pm -9.7 -17.8 -18.1 50 - ENE 24 41 13 22 976.1 - -
19/08:00pm -9.8 -17.1 -17.3 54 - ENE 20 28 11 15 975.6 - -
19/07:30pm -9.3 -16.6 -17.8 50 - ENE 20 30 11 16 975.3 - -
19/07:11pm -8.8 -17.6 -18.0 47 - ENE 28 41 15 22 975.0 - -
19/07:00pm -9.2 -15.9 -16.3 56 - ENE 17 20 9 11 975.1 975.3 -
19/06:30pm -9.3 -16.5 -15.8 59 - NE 20 33 11 18 974.7 - -
19/06:00pm -9.0 -18.1 -16.1 56 - NE 30 39 16 21 974.1 - -
19/05:30pm -9.0 -17.3 -15.7 58 - NE 26 37 14 20 973.8 - -
19/05:00pm -8.9 -16.9 -16.0 56 - NE 24 35 13 19 973.5 - -
19/04:30pm -8.7 -18.2 -15.9 56 - NE 32 41 17 22 972.9 - -
19/04:00pm -9.0 -18.1 -15.7 58 - NE 30 44 16 24 972.5 972.7 -
19/03:30pm -8.9 -18.0 -15.8 57 - NE 30 43 16 23 972.1 - -
19/03:00pm -9.0 -17.7 -15.3 60 - NE 28 37 15 20 971.8 - -
19/02:30pm -8.9 -18.4 -15.4 59 - NE 32 43 17 23 971.6 - -
19/02:10pm -8.6 -18.1 -15.6 57 - NE 32 50 17 27 970.9 - -
19/02:00pm -8.9 -16.8 -15.2 60 - NE 24 33 13 18 971.0 - -
19/01:30pm -8.6 -18.1 -15.3 58 - ENE 32 41 17 22 970.6 - -
19/01:06pm -8.5 -19.3 -15.3 58 - ENE 39 57 21 31 970.1 - -
19/01:00pm -8.5 -19.7 -15.3 58 - ENE 41 54 22 29 969.7 969.9 -
19/12:30pm -8.6 -17.3 -14.9 60 - ENE 28 46 15 25 969.3 - -
19/12:00pm -8.8 -17.1 -14.3 64 - ENE 26 39 14 21 969.1 - -
19/11:30am -8.7 -17.7 -14.3 64 - NE 30 41 16 22 968.6 - -
19/11:13am -8.6 -17.2 -14.0 65 - NE 28 46 15 25 968.5 - -
19/11:00am -8.5 -17.1 -14.1 64 - NE 28 43 15 23 968.3 - -
19/10:50am -8.8 -17.4 -13.6 68 - NE 28 46 15 25 968.2 - -
19/10:30am -8.8 -16.3 -13.8 67 - NE 22 30 12 16 968.0 - -
19/10:00am -8.6 -15.7 -14.0 65 - NE 20 30 11 16 967.8 968.0 -
19/09:30am -8.2 -17.6 -14.0 63 - NE 32 46 17 25 967.3 - -
19/09:02am -8.0 -17.4 -14.2 61 - NE 32 50 17 27 967.0 - -
19/09:00am -8.2 -17.6 -13.8 64 - NE 32 39 17 21 967.2 - -
19/08:30am -8.0 -17.4 -14.0 62 - NE 32 46 17 25 966.7 - -
19/08:07am -7.8 -16.4 -14.0 61 - ENE 28 46 15 25 966.7 - -
19/08:00am -7.9 -16.5 -13.9 62 - ENE 28 41 15 22 966.8 - -
19/07:30am -7.9 -14.8 -13.7 63 - NE 19 37 10 20 966.5 - -
19/07:05am -7.8 -17.7 -13.6 63 - NE 35 54 19 29 965.6 - -
19/07:00am -7.9 -19.4 -13.9 62 - ENE 43 54 23 29 965.2 965.4 -
19/06:35am -7.3 -18.8 -13.9 59 - ENE 43 61 23 33 964.9 - -
19/06:30am -7.4 -18.1 -14.0 59 - ENE 39 50 21 27 965.2 - -
19/06:00am -7.8 -17.3 -13.4 64 - NE 33 43 18 23 965.3 - -
19/05:54am -7.3 -15.9 -13.7 60 - ENE 28 43 15 23 965.3 - -
19/05:30am -7.7 -12.7 -13.5 63 - SE 9 15 5 8 965.5 - -
19/05:05am -7.6 -17.1 -12.8 66 - NE 33 52 18 28 964.7 - -
19/05:00am -7.6 -17.9 -12.6 67 - NE 37 52 20 28 963.9 - -
19/04:58am -7.7 -18.3 -12.7 67 - NE 39 52 21 28 963.7 - -
19/04:33am -7.6 -22.3 -11.4 74 - NE 61 82 33 44 961.6 - -
19/04:30am -7.6 -22.7 -11.6 73 - NE 63 76 34 41 961.9 - -
19/04:21am -7.5 -23.8 -11.7 72 - NE 69 78 37 42 962.1 - -
19/04:15am -7.0 -19.4 -13.4 60 - NE 48 67 26 36 962.8 - -
19/04:00am -7.3 -17.6 -13.7 60 - ENE 37 52 20 28 963.9 964.1 -
19/03:30am -7.6 -17.0 -13.8 61 - ENE 32 43 17 23 963.6 - -
19/03:00am -7.7 -19.2 -13.5 63 - ENE 43 61 23 33 962.6 - -
19/02:30am -7.5 -19.1 -13.1 64 - ENE 44 63 24 34 962.3 - -
19/02:00am -7.2 -19.2 -13.0 63 - ENE 46 72 25 39 962.0 - -
19/01:35am -7.2 -19.6 -12.8 64 - ENE 48 67 26 36 961.8 - -
19/01:30am -7.3 -20.0 -12.2 68 - ENE 50 67 27 36 961.4 - -
19/01:16am -7.2 -19.2 -12.4 66 - ENE 46 65 25 35 961.4 - -
19/01:00am -7.1 -19.8 -12.5 65 - ENE 50 65 27 35 961.4 961.6 -
19/12:30am -6.8 -19.8 -11.3 70 - ENE 52 70 28 38 960.7 - -
19/12:28am -6.9 -19.5 -11.1 72 - ENE 50 69 27 37 960.7 - -
19/12:00am -7.2 -19.8 -11.0 74 - ENE 50 65 27 35 960.3 - -
 
Date/Time
EST
Temp
°C
App
Temp
°C
Dew
Point
Rel
Hum
%
Delta-T
°C
Wind Press
QNH
hPa
Press
MSL
hPa
Rain
since 9 am
mm
Dir
 
Spd
km/h
Gust
km/h
Spd
kts
Gust
kts
18/11:30pm -6.8 -19.4 -11.2 71 - ENE 50 76 27 41 960.3 - -
18/11:00pm -7.0 -19.6 -10.5 76 - ENE 50 76 27 41 960.1 - -
18/10:30pm -6.6 -19.2 -10.6 73 - ENE 50 72 27 39 960.1 - -
18/10:13pm -6.7 -19.3 -10.9 72 - ENE 50 69 27 37 959.9 - -
18/10:00pm -7.2 -20.6 -10.7 76 - ENE 54 69 29 37 959.7 959.9 -
18/09:54pm -7.1 -19.7 -10.3 78 - ENE 50 69 27 37 959.5 - -
18/09:30pm -6.9 -20.3 -10.6 75 - ENE 54 70 29 38 959.1 - -
18/09:00pm -7.0 -20.9 -9.7 81 - ENE 57 78 31 42 958.9 - -
18/08:51pm -6.8 -20.1 -9.3 82 - ENE 54 72 29 39 959.1 - -
18/08:30pm -6.7 -20.0 -9.4 81 - ENE 54 70 29 38 958.9 - -
18/08:15pm -6.7 -19.9 -8.9 84 - ENE 54 74 29 40 959.0 - -
18/08:00pm -6.6 -19.5 -9.6 79 - ENE 52 65 28 35 959.1 - -
18/07:35pm -7.4 -17.9 -10.1 81 - E 39 59 21 32 959.7 - -
18/07:30pm -7.3 -17.8 -10.3 79 - E 39 52 21 28 959.8 - -
18/07:15pm -7.7 -18.9 -10.2 82 - E 43 61 23 33 960.0 - -
18/07:00pm -7.9 -19.1 -10.3 83 - E 43 57 23 31 959.9 960.1 -
18/06:47pm -7.8 -19.6 -10.5 81 - E 46 65 25 35 960.0 - -
18/06:30pm -7.9 -20.4 -9.8 86 - E 50 65 27 35 959.7 - -
18/06:00pm -7.4 -18.8 -10.1 81 - E 44 59 24 32 960.1 - -
18/05:30pm -7.2 -18.4 -10.0 80 - E 43 57 23 31 960.1 - -
18/05:13pm -6.9 -17.4 -10.4 76 - ENE 39 57 21 31 960.1 - -
18/05:00pm -6.6 -15.4 -11.0 71 - E 30 41 16 22 960.4 - -
18/04:30pm -5.9 -14.0 -12.0 62 - E 26 35 14 19 960.7 - -
18/04:00pm -6.5 -15.0 -12.4 63 - E 28 35 15 19 960.8 961.0 -
18/03:30pm -6.7 -16.5 -11.4 69 - E 35 43 19 23 960.7 - -
18/03:00pm -6.8 -16.6 -11.0 72 - E 35 46 19 25 961.0 - -
18/02:49pm -7.0 -16.7 -9.9 80 - E 35 54 19 29 960.9 - -
18/02:30pm -6.3 -15.7 -10.7 71 - E 33 43 18 23 961.3 - -
18/02:14pm -6.0 -15.1 -9.9 74 - E 32 50 17 27 961.5 - -
18/02:00pm -6.6 -15.1 -11.5 68 - E 28 35 15 19 961.9 - -
18/01:30pm -7.5 -15.6 -12.2 69 - E 26 33 14 18 962.4 - -
18/01:00pm -7.8 -16.3 -12.5 69 - E 28 35 15 19 962.9 963.1 -
18/12:30pm -7.2 -16.4 -11.0 74 - E 32 39 17 21 963.2 - -
18/12:00pm -6.9 -14.6 -10.9 73 - E 24 35 13 19 963.5 - -
18/11:30am -8.6 -16.0 -12.7 72 - SE 22 32 12 17 963.8 - -
18/11:00am -8.2 -13.9 -13.0 68 - SE 13 19 7 10 964.4 - -
18/10:30am -7.6 -15.7 -12.1 70 - E 26 33 14 18 964.8 - -
18/10:00am -7.7 -13.3 -11.3 75 - E 13 19 7 10 965.3 965.5 -
18/09:30am -8.5 -14.9 -11.3 80 - SSE 17 20 9 11 965.6 - -
18/09:00am -8.9 -15.6 -10.1 91 - SSE 19 22 10 12 966.1 - -
18/08:30am -8.9 -15.2 -10.0 92 - SSE 17 20 9 11 966.7 - -
18/08:00am -9.3 -15.2 -10.4 92 - SSE 15 20 8 11 967.2 - -
18/07:30am -9.8 -16.5 -10.8 92 - SE 19 22 10 12 967.5 - -
18/07:00am -10.4 -16.8 -12.0 88 - SSE 17 20 9 11 968.1 968.3 -
18/06:30am -11.3 -17.4 -13.7 82 - SE 15 19 8 10 968.7 - -
18/06:00am -11.1 -17.3 -14.5 76 - SE 15 20 8 11 969.1 - -
18/05:30am -11.0 -17.6 -15.2 71 - SSE 17 20 9 11 969.7 - -
18/05:00am -10.9 -16.7 -15.1 71 - SE 13 17 7 9 970.3 - -
18/04:30am -11.4 -17.3 -16.1 68 - ESE 13 15 7 8 970.8 - -
18/04:00am -11.1 -17.4 -16.0 67 - SE 15 20 8 11 971.1 971.3 -
18/03:30am -11.8 -18.1 -16.1 70 - SE 15 17 8 9 971.5 - -
18/03:00am -12.1 -18.4 -15.9 73 - SSE 15 20 8 11 971.8 - -
18/02:30am -12.0 -18.6 -15.7 74 - SSE 17 19 9 10 972.3 - -
18/02:00am -11.8 -18.0 -15.5 74 - SSE 15 19 8 10 972.9 - -
18/01:30am -12.1 -17.2 -15.8 74 - E 9 13 5 7 973.3 - -
18/01:00am -11.7 -16.8 -15.5 73 - ENE 9 13 5 7 973.8 974.0 -
18/12:30am -11.9 -16.6 -15.6 74 - ESE 7 9 4 5 974.2 - -
18/12:00am -11.7 -17.2 -15.5 73 - E 11 19 6 10 974.4 - -
 
Date/Time
EST
Temp
°C
App
Temp
°C
Dew
Point
Rel
Hum
%
Delta-T
°C
Wind Press
QNH
hPa
Press
MSL
hPa
Rain
since 9 am
mm
Dir
 
Spd
km/h
Gust
km/h
Spd
kts
Gust
kts
17/11:30pm -13.0 -18.5 -16.2 77 - SSE 11 15 6 8 974.9 - -
17/11:00pm -13.3 -19.2 -16.6 76 - S 13 15 7 8 975.4 - -
17/10:30pm -13.8 -20.1 -16.6 79 - SE 15 19 8 10 975.9 - -
17/10:00pm -13.9 -20.2 -16.9 78 - SE 15 19 8 10 976.0 976.2 -
17/09:30pm -13.8 -19.7 -16.9 77 - SSE 13 17 7 9 976.3 - -
17/09:00pm -13.7 -18.9 -17.0 76 - SE 9 13 5 7 976.3 - -
17/08:30pm -13.9 -19.5 -17.5 74 - SE 11 13 6 7 976.7 - -
17/08:00pm -14.2 -19.8 -18.0 73 - SE 11 15 6 8 977.1 - -
17/07:30pm -14.6 -20.2 -18.0 75 - SE 11 15 6 8 977.4 - -
17/07:00pm -14.3 -19.5 -18.4 71 - SE 9 15 5 8 977.4 977.6 -
17/06:30pm -14.2 -19.4 -18.4 70 - ESE 9 15 5 8 977.5 - -
17/06:00pm -14.2 -19.1 -19.3 65 - ESE 7 11 4 6 977.8 - -
17/05:30pm -14.3 -19.2 -18.9 68 - ESE 7 7 4 4 978.0 - -
17/05:00pm -14.6 -19.8 -18.7 71 - ESE 9 9 5 5 978.2 - -
17/04:30pm -14.9 -19.8 -19.0 71 - ESE 7 11 4 6 978.3 - -
17/04:00pm -15.5 -20.8 -18.9 75 - SE 9 11 5 6 978.5 978.7 -
17/03:30pm -15.4 -20.7 -19.4 71 - SE 9 11 5 6 978.7 - -
17/03:00pm -15.3 -20.2 -19.8 68 - SE 7 9 4 5 978.8 - -
17/02:30pm -16.0 -20.7 -20.0 71 - SSW 6 7 3 4 979.1 - -
17/02:00pm -16.5 -22.2 -20.8 69 - S 11 15 6 8 979.3 - -
17/01:30pm -16.9 -23.4 -21.4 68 - SSE 15 19 8 10 979.4 - -
17/01:00pm -17.5 -23.6 -21.5 71 - SSE 13 17 7 9 979.7 979.9 -
17/12:30pm -17.8 -23.5 -21.6 72 - SSE 11 15 6 8 979.9 - -
17/12:00pm -18.0 -23.8 -22.8 66 - SSE 11 15 6 8 980.1 - -
17/11:30am -18.5 -24.7 -23.4 65 - SSE 13 15 7 8 980.3 - -
17/11:00am -18.7 -24.9 -23.8 64 - SE 13 15 7 8 980.5 - -
17/10:30am -18.5 -24.3 -23.9 62 - SE 11 13 6 7 980.6 - -
17/10:00am -19.0 -24.8 -24.1 64 - SE 11 13 6 7 980.9 981.1 -
17/09:30am -19.2 -25.0 -24.3 64 - SE 11 13 6 7 981.2 - -
17/09:00am -18.9 -24.3 -24.7 60 - ESE 9 9 5 5 981.2 - -
17/08:30am -19.1 -24.5 -25.1 59 - ESE 9 11 5 6 981.3 - -
17/08:00am -19.4 -25.2 -25.5 58 - ESE 11 13 6 7 981.4 - -
17/07:30am -19.9 -26.1 -25.8 59 - ESE 13 15 7 8 981.6 - -
17/07:00am -20.2 -26.1 -26.3 58 - ESE 11 11 6 6 981.6 981.8 -
17/06:30am -20.5 -26.0 -26.2 60 - ESE 9 9 5 5 981.8 - -
17/06:00am -20.9 -26.8 -26.4 61 - ESE 11 13 6 7 982.0 - -
17/05:30am -21.6 -27.8 -26.9 62 - ESE 13 15 7 8 982.0 - -
17/05:00am -22.5 -29.1 -27.1 66 - ESE 15 17 8 9 982.0 - -
17/04:30am -23.6 -29.9 -27.3 72 - ESE 13 15 7 8 982.4 - -
17/04:00am -23.8 -30.1 -27.2 73 - SE 13 15 7 8 982.7 982.9 -
17/03:30am -24.0 -29.5 -27.1 76 - SE 9 13 5 7 982.8 - -
17/03:00am -24.3 -30.6 -27.6 74 - SE 13 13 7 7 982.9 - -
17/02:30am -24.3 -29.4 -27.2 77 - SSE 7 9 4 5 983.1 - -
17/02:00am -23.9 -28.8 -26.6 78 - S 6 7 3 4 983.0 - -
17/01:30am -23.4 -28.5 -25.9 80 - SSW 7 7 4 4 983.0 - -
17/01:00am -23.9 -28.8 -26.5 79 - S 6 6 3 3 983.1 983.3 -
17/12:30am -23.7 -28.6 -26.3 79 - S 6 7 3 4 983.2 - -
17/12:00am -22.6 -27.7 -24.8 82 - S 7 11 4 6 983.4 - -

Other Formats:

Comma delimited format used in spreadsheet applications
http://www.bom.gov.au/fwo/IDT60803/IDT60803.89571.axf

JavaScript Object Notation format (JSON) in row-major order
http://www.bom.gov.au/fwo/IDT60803/IDT60803.89571.json